createdAt,value
2017-05-18T00:01:55.437Z,9.94
2017-05-18T00:04:24.380Z,8.08
2017-05-18T00:06:53.320Z,6.50
2017-05-18T00:09:23.325Z,6.38
2017-05-18T00:11:52.303Z,8.90
2017-05-18T00:14:21.253Z,6.26
2017-05-18T00:16:50.511Z,8.04
2017-05-18T00:19:19.453Z,5.86
2017-05-18T00:21:48.420Z,7.04
2017-05-18T00:24:17.883Z,6.16
2017-05-18T00:26:46.846Z,10.62
2017-05-18T00:29:15.792Z,6.58
2017-05-18T00:31:45.912Z,4.50
2017-05-18T00:34:15.600Z,5.88
2017-05-18T00:36:44.700Z,7.90
2017-05-18T00:39:14.067Z,6.36
2017-05-18T00:41:43.121Z,5.58
2017-05-18T00:44:12.057Z,4.80
2017-05-18T00:46:41.377Z,4.58
2017-05-18T00:49:10.453Z,4.90
2017-05-18T00:51:39.388Z,4.70
2017-05-18T00:54:09.562Z,7.88
2017-05-18T00:56:38.514Z,5.20
2017-05-18T00:59:07.446Z,4.82
2017-05-18T01:01:36.818Z,6.06
2017-05-18T01:04:05.775Z,4.40
2017-05-18T01:06:35.442Z,5.66
2017-05-18T01:09:04.720Z,6.52
2017-05-18T01:11:33.670Z,5.36
2017-05-18T01:14:03.351Z,4.38
2017-05-18T01:16:32.627Z,4.26
2017-05-18T01:19:01.555Z,6.14
2017-05-18T01:21:30.512Z,7.12
2017-05-18T01:23:59.860Z,5.34
2017-05-18T01:26:29.541Z,5.60
2017-05-18T01:28:58.467Z,5.70
2017-05-18T01:31:28.562Z,5.74
2017-05-18T01:33:57.507Z,6.88
2017-05-18T01:36:26.441Z,4.64
2017-05-18T01:38:55.754Z,5.76
2017-05-18T01:41:25.440Z,7.04
2017-05-18T01:43:54.397Z,7.60
2017-05-18T01:46:23.684Z,6.20
2017-05-18T01:48:52.621Z,9.00
2017-05-18T01:51:21.552Z,8.88
2017-05-18T01:53:51.521Z,8.14
2017-05-18T01:56:20.457Z,5.34
2017-05-18T01:58:50.131Z,5.88
2017-05-18T02:01:19.450Z,6.28
2017-05-18T02:03:49.140Z,7.76
2017-05-18T02:06:18.291Z,5.90
2017-05-18T02:08:47.543Z,5.80
2017-05-18T02:11:16.486Z,5.54
2017-05-18T02:13:45.408Z,9.56
2017-05-18T02:16:14.696Z,6.06
2017-05-18T02:18:43.651Z,7.04
2017-05-18T02:21:12.586Z,7.22
2017-05-18T02:23:41.910Z,6.18
2017-05-18T02:26:10.858Z,6.36
2017-05-18T02:28:39.787Z,5.70
2017-05-18T02:31:09.099Z,6.48
2017-05-18T02:33:38.816Z,6.12
2017-05-18T02:36:08.493Z,8.76
2017-05-18T02:38:37.798Z,6.52
2017-05-18T02:41:06.753Z,7.30
2017-05-18T02:43:35.701Z,7.72
2017-05-18T02:46:05.826Z,6.04
2017-05-18T02:48:35.516Z,6.92
2017-05-18T02:51:04.549Z,7.88
2017-05-18T02:53:33.806Z,19.90
2017-05-18T02:56:02.776Z,5.88
2017-05-18T02:58:31.712Z,7.42
2017-05-18T03:01:01.028Z,9.38
2017-05-18T03:03:29.949Z,7.62
2017-05-18T03:05:58.972Z,7.66
2017-05-18T03:08:28.283Z,8.82
2017-05-18T03:10:58.010Z,7.24
2017-05-18T03:13:26.941Z,7.62
2017-05-18T03:15:56.199Z,10.32
2017-05-18T03:18:25.151Z,6.30
2017-05-18T03:20:54.143Z,11.24
2017-05-18T03:23:23.542Z,7.60
2017-05-18T03:25:52.483Z,9.98
2017-05-18T03:28:21.427Z,9.98
2017-05-18T03:30:50.714Z,9.44
2017-05-18T03:33:19.679Z,13.10
2017-05-18T03:35:48.609Z,7.16
2017-05-18T03:38:18.033Z,7.94
2017-05-18T03:40:47.733Z,8.10
2017-05-18T03:43:17.632Z,6.88
2017-05-18T03:45:46.659Z,13.88
2017-05-18T03:48:15.606Z,7.24
2017-05-18T03:50:44.956Z,7.42
2017-05-18T03:53:13.884Z,8.36
2017-05-18T03:55:42.833Z,10.32
2017-05-18T03:58:12.209Z,7.60
2017-05-18T04:00:41.157Z,11.10
2017-05-18T04:03:10.116Z,9.30
2017-05-18T04:05:39.494Z,8.24
2017-05-18T04:08:08.467Z,9.42
2017-05-18T04:10:37.397Z,7.34
2017-05-18T04:13:07.464Z,8.10
2017-05-18T04:15:36.421Z,13.26
2017-05-18T04:18:05.390Z,9.12
2017-05-18T04:20:34.783Z,11.20
2017-05-18T04:23:04.547Z,10.04
2017-05-18T04:25:33.486Z,7.22
2017-05-18T04:28:02.790Z,9.86
2017-05-18T04:30:31.755Z,7.58
2017-05-18T04:33:00.815Z,8.78
2017-05-18T04:35:30.127Z,8.48
2017-05-18T04:37:59.183Z,7.62
2017-05-18T04:40:28.126Z,8.08
2017-05-18T04:42:57.449Z,9.24
2017-05-18T04:45:26.459Z,8.90
2017-05-18T04:47:56.174Z,9.04
2017-05-18T04:50:24.733Z,8.62
2017-05-18T04:52:54.459Z,8.50
2017-05-18T04:55:24.677Z,7.40
2017-05-18T04:57:54.363Z,8.90
2017-05-18T05:00:23.316Z,8.80
2017-05-18T05:02:52.661Z,11.56
2017-05-18T05:05:21.626Z,8.28
2017-05-18T05:07:50.591Z,10.08
2017-05-18T05:10:19.936Z,10.98
2017-05-18T05:12:48.926Z,8.90
2017-05-18T05:15:17.898Z,8.58
2017-05-18T05:17:47.203Z,9.22
2017-05-18T05:20:16.900Z,8.46
2017-05-18T05:22:45.874Z,8.30
2017-05-18T05:25:15.223Z,8.48
2017-05-18T05:27:44.171Z,9.38
2017-05-18T05:30:13.138Z,13.98
2017-05-18T05:32:42.351Z,8.34
2017-05-18T05:35:11.299Z,8.48
2017-05-18T05:37:40.263Z,7.86
2017-05-18T05:40:10.353Z,8.34
2017-05-18T05:42:39.310Z,7.64
2017-05-18T05:45:09.147Z,8.22
2017-05-18T05:47:38.504Z,8.36
2017-05-18T05:50:07.581Z,8.02
2017-05-18T05:52:36.536Z,7.02
2017-05-18T05:55:05.838Z,7.26
2017-05-18T05:57:34.806Z,9.28
2017-05-18T06:00:03.923Z,8.30
2017-05-18T06:02:33.291Z,7.02
2017-05-18T06:05:02.991Z,7.44
2017-05-18T06:07:31.945Z,12.10
2017-05-18T06:10:01.691Z,11.18
2017-05-18T06:12:30.634Z,6.80
2017-05-18T06:14:59.581Z,8.34
2017-05-18T06:17:29.085Z,7.58
2017-05-18T06:19:58.767Z,6.72
2017-05-18T06:22:27.819Z,11.44
2017-05-18T06:37:57.262Z,8.58
2017-05-18T06:40:26.244Z,8.46
2017-05-18T06:42:55.198Z,6.82
2017-05-18T06:45:24.620Z,7.28
2017-05-18T06:47:53.581Z,6.62
2017-05-18T06:50:22.604Z,12.62
2017-05-18T06:52:51.893Z,13.32
2017-05-18T06:55:20.879Z,8.76
2017-05-18T06:57:49.844Z,7.46
2017-05-18T07:00:19.332Z,6.82
2017-05-18T07:02:49.047Z,6.88
2017-05-18T07:05:18.036Z,7.02
2017-05-18T07:07:47.328Z,8.60
2017-05-18T07:10:17.054Z,11.16
2017-05-18T07:12:45.998Z,8.48
2017-05-18T07:15:15.276Z,7.88
2017-05-18T07:17:44.382Z,7.16
2017-05-18T07:20:13.317Z,7.86
2017-05-18T07:22:43.417Z,7.56
2017-05-18T07:25:12.360Z,6.82
2017-05-18T07:27:41.304Z,9.14
2017-05-18T07:30:11.419Z,6.42
2017-05-18T07:32:40.365Z,7.14
2017-05-18T07:35:09.307Z,6.06
2017-05-18T07:37:38.601Z,7.22
2017-05-18T07:40:07.533Z,6.98
2017-05-18T07:42:36.485Z,12.88
2017-05-18T07:45:05.891Z,6.24
2017-05-18T07:47:35.578Z,5.78
2017-05-18T07:50:04.532Z,12.16
2017-05-18T07:52:33.877Z,6.20
2017-05-18T07:55:02.797Z,7.68
2017-05-18T07:57:31.759Z,4.92
2017-05-18T08:00:00.987Z,6.28
2017-05-18T08:02:30.753Z,13.66
2017-05-18T08:04:59.711Z,7.76
2017-05-18T08:07:29.072Z,13.56
2017-05-18T08:09:58.018Z,6.24
2017-05-18T08:12:26.978Z,6.06
2017-05-18T08:14:56.249Z,9.42
2017-05-18T08:17:25.200Z,5.40
2017-05-18T08:19:54.150Z,4.84
2017-05-18T08:22:24.259Z,5.22
2017-05-18T08:24:53.940Z,7.78
2017-05-18T08:27:22.961Z,3.96
2017-05-18T08:29:52.997Z,4.08
2017-05-18T08:32:21.969Z,4.78
2017-05-18T08:34:51.667Z,7.08
2017-05-18T08:37:20.945Z,9.16
2017-05-18T08:39:49.984Z,5.88
2017-05-18T08:42:18.994Z,4.62
2017-05-18T08:44:48.295Z,6.64
2017-05-18T08:47:17.269Z,16.42
2017-05-18T08:49:46.256Z,6.40
2017-05-18T08:52:16.356Z,4.94
2017-05-18T08:54:45.335Z,5.40
2017-05-18T08:57:14.284Z,6.18
2017-05-18T08:59:43.579Z,4.88
2017-05-18T09:02:12.547Z,5.80
2017-05-18T09:04:42.300Z,5.56
2017-05-18T09:07:11.628Z,4.82
2017-05-18T09:09:40.568Z,5.68
2017-05-18T09:12:09.533Z,5.64
2017-05-18T09:14:39.567Z,5.86
2017-05-18T09:17:08.531Z,7.26
2017-05-18T09:19:37.506Z,9.76
2017-05-18T09:22:06.930Z,5.92
2017-05-18T09:24:36.690Z,6.36
2017-05-18T09:27:05.637Z,3.64
2017-05-18T09:29:35.607Z,8.76
2017-05-18T09:32:04.594Z,4.34
2017-05-18T09:34:33.590Z,10.18
2017-05-18T09:37:02.941Z,5.24
2017-05-18T09:39:31.911Z,4.48
2017-05-18T09:42:00.852Z,9.70
2017-05-18T09:44:30.216Z,7.20
2017-05-18T09:46:59.926Z,6.14
2017-05-18T09:49:29.634Z,4.42
2017-05-18T09:51:58.984Z,6.38
2017-05-18T09:54:27.970Z,9.28
2017-05-18T09:56:56.911Z,8.58
2017-05-18T09:59:27.010Z,4.36
2017-05-18T10:01:55.948Z,5.84
2017-05-18T10:04:24.927Z,8.54
2017-05-18T10:06:55.017Z,5.02
2017-05-18T10:09:24.008Z,3.12
2017-05-18T10:11:52.973Z,5.86
2017-05-18T10:14:22.246Z,3.74
2017-05-18T10:16:51.263Z,4.86
2017-05-18T10:19:20.599Z,4.36
2017-05-18T10:21:49.893Z,3.70
2017-05-18T10:24:18.984Z,4.86
2017-05-18T10:26:48.010Z,3.48
2017-05-18T10:29:17.338Z,9.50
2017-05-18T10:31:46.307Z,4.72
2017-05-18T10:34:15.270Z,8.82
2017-05-18T10:36:44.673Z,5.42
2017-05-18T10:39:13.638Z,4.06
2017-05-18T10:41:42.614Z,5.88
2017-05-18T10:44:11.960Z,5.88
2017-05-18T10:46:41.674Z,5.80
2017-05-18T10:49:11.678Z,3.96
2017-05-18T10:51:40.630Z,2.80
2017-05-18T10:54:09.573Z,3.54
2017-05-18T10:56:39.694Z,3.20
2017-05-18T10:59:09.377Z,5.62
2017-05-18T11:01:38.343Z,6.76
2017-05-18T11:04:07.684Z,4.12
2017-05-18T11:06:37.434Z,4.28
2017-05-18T11:09:06.446Z,4.40
2017-05-18T11:11:35.812Z,5.62
2017-05-18T11:14:04.775Z,6.98
2017-05-18T11:16:33.727Z,5.74
2017-05-18T11:19:03.041Z,6.92
2017-05-18T11:21:32.019Z,10.28
2017-05-18T11:24:00.987Z,3.66
2017-05-18T11:26:30.341Z,5.76
2017-05-18T11:28:59.270Z,7.02
2017-05-18T11:31:28.233Z,7.42
2017-05-18T11:33:57.756Z,4.86
2017-05-18T11:36:27.475Z,4.32
2017-05-18T11:38:56.437Z,4.54
2017-05-18T11:41:25.807Z,3.86
2017-05-18T11:43:54.780Z,5.24
2017-05-18T11:46:23.853Z,9.94
2017-05-18T11:48:53.219Z,4.40
2017-05-18T11:51:22.170Z,4.88
2017-05-18T11:53:51.114Z,3.22
2017-05-18T11:56:21.177Z,4.34
2017-05-18T11:58:50.184Z,5.16
2017-05-18T12:01:19.148Z,4.00
2017-05-18T12:03:48.505Z,7.08
2017-05-18T12:06:17.460Z,5.80
2017-05-18T12:08:46.444Z,4.76
2017-05-18T12:11:15.779Z,3.42
2017-05-18T12:13:44.786Z,4.30
2017-05-18T12:16:13.776Z,8.10
2017-05-18T12:18:43.076Z,5.82
2017-05-18T12:21:12.021Z,4.64
2017-05-18T12:23:40.996Z,10.16
2017-05-18T12:26:10.265Z,18.70
2017-05-18T12:28:39.982Z,19.36
2017-05-18T12:31:09.684Z,20.54
2017-05-18T12:33:39.786Z,26.50
2017-05-18T12:36:08.781Z,25.28
2017-05-18T12:38:37.769Z,27.18
2017-05-18T12:41:07.086Z,23.92
2017-05-18T12:43:36.776Z,23.56
2017-05-18T12:46:05.740Z,25.64
2017-05-18T12:48:35.069Z,27.88
2017-05-18T12:51:04.055Z,24.68
2017-05-18T12:53:33.030Z,26.98
2017-05-18T12:56:02.371Z,28.50
2017-05-18T12:58:32.052Z,32.78
2017-05-18T13:01:01.011Z,32.22
2017-05-18T13:03:30.372Z,23.30
2017-05-18T13:06:00.072Z,25.92
2017-05-18T13:08:29.030Z,23.12
2017-05-18T13:10:58.291Z,23.00
2017-05-18T13:13:27.257Z,25.88
2017-05-18T13:15:56.960Z,26.36
2017-05-18T13:18:26.977Z,19.10
2017-05-18T13:20:56.057Z,15.12
2017-05-18T13:23:25.018Z,20.26
2017-05-18T13:25:54.360Z,19.50
2017-05-18T13:28:23.324Z,20.70
2017-05-18T13:30:52.372Z,23.24
2017-05-18T13:33:22.418Z,21.52
2017-05-18T13:35:51.353Z,22.04
2017-05-18T13:48:05.768Z,24.08
2017-05-18T13:50:34.723Z,26.72
2017-05-18T13:53:03.659Z,20.94
2017-05-18T13:55:33.775Z,22.60
2017-05-18T13:58:02.857Z,23.70
2017-05-18T14:00:31.836Z,16.14
2017-05-18T14:03:01.131Z,14.94
2017-05-18T14:05:30.081Z,17.72
2017-05-18T14:07:59.135Z,15.16
2017-05-18T14:10:28.464Z,14.62
2017-05-18T14:12:57.609Z,14.56
2017-05-18T14:15:26.559Z,15.16
2017-05-18T14:17:55.943Z,21.20
2017-05-18T14:20:24.912Z,14.94
2017-05-18T14:22:53.858Z,15.64
2017-05-18T14:25:23.161Z,13.68
2017-05-18T14:27:52.138Z,12.56
2017-05-18T14:30:21.238Z,9.70
2017-05-18T14:32:50.582Z,11.60
2017-05-18T14:35:19.533Z,9.02
2017-05-18T14:37:48.575Z,9.12
2017-05-18T14:40:17.982Z,8.24
2017-05-18T14:42:46.896Z,13.58
2017-05-18T14:45:15.896Z,7.88
2017-05-18T14:47:45.263Z,12.76
2017-05-18T14:50:14.221Z,6.24
2017-05-18T14:52:43.175Z,4.94
2017-05-18T14:55:12.551Z,5.22
2017-05-18T14:57:41.512Z,12.32
2017-05-18T15:00:10.514Z,4.34
2017-05-18T15:02:39.916Z,8.80
2017-05-18T15:05:08.888Z,7.68
2017-05-18T15:07:37.834Z,4.12
2017-05-18T15:10:07.931Z,4.54
2017-05-18T15:12:36.918Z,3.66
2017-05-18T15:15:05.884Z,4.48
2017-05-18T15:17:35.222Z,2.96
2017-05-18T15:20:04.192Z,5.36
2017-05-18T15:22:33.159Z,3.28
2017-05-18T15:25:02.531Z,7.18
2017-05-18T15:27:31.472Z,8.06
2017-05-18T15:30:00.521Z,5.34
2017-05-18T15:32:29.905Z,4.80
2017-05-18T15:34:59.611Z,4.06
2017-05-18T15:37:29.619Z,4.94
2017-05-18T15:39:59.390Z,5.62
2017-05-18T15:42:28.371Z,4.82
2017-05-18T15:44:57.814Z,4.68
2017-05-18T15:47:26.752Z,3.78
2017-05-18T15:49:55.704Z,4.58
2017-05-18T15:52:25.111Z,6.18
2017-05-18T15:54:54.822Z,4.34
2017-05-18T15:57:24.538Z,5.90
2017-05-18T15:59:54.739Z,5.22
2017-05-18T16:02:24.467Z,6.08
2017-05-18T16:04:53.409Z,5.64
2017-05-18T16:07:22.853Z,8.84
2017-05-18T16:09:52.535Z,4.12
2017-05-18T16:12:21.472Z,5.60
2017-05-18T16:14:50.726Z,6.38
2017-05-18T16:17:19.666Z,7.46
2017-05-18T16:19:48.639Z,4.54
2017-05-18T16:22:18.010Z,4.48
2017-05-18T16:24:46.952Z,4.68
2017-05-18T16:27:15.913Z,6.50
2017-05-18T16:29:45.213Z,8.34
2017-05-18T16:32:14.938Z,9.42
2017-05-18T16:34:44.634Z,6.36
2017-05-18T16:37:14.740Z,5.68
2017-05-18T16:39:43.713Z,8.02
2017-05-18T16:42:12.735Z,7.30
2017-05-18T16:57:42.060Z,4.00
2017-05-18T17:00:11.046Z,5.06
2017-05-18T17:02:40.367Z,4.56
2017-05-18T17:05:09.715Z,4.70
2017-05-18T17:07:39.446Z,5.78
2017-05-18T17:10:08.424Z,4.56
2017-05-18T17:12:37.795Z,4.08
2017-05-18T17:15:06.750Z,4.26
2017-05-18T17:17:35.685Z,6.68
2017-05-18T17:20:05.016Z,4.18
2017-05-18T17:22:34.018Z,3.18
2017-05-18T17:25:02.982Z,5.54
2017-05-18T17:27:32.322Z,2.92
2017-05-18T17:30:01.278Z,2.60
2017-05-18T17:32:30.981Z,3.68
2017-05-18T17:35:01.110Z,6.76
2017-05-18T17:37:30.867Z,3.36
2017-05-18T17:39:59.906Z,5.94
2017-05-18T17:42:30.032Z,3.48
2017-05-18T17:44:59.075Z,4.22
2017-05-18T17:47:28.040Z,3.36
2017-05-18T17:49:57.396Z,3.16
2017-05-18T17:52:26.348Z,2.42
2017-05-18T17:54:55.309Z,2.78
2017-05-18T17:57:24.669Z,1.84
2017-05-18T17:59:53.624Z,2.52
2017-05-18T18:02:22.595Z,5.78
2017-05-18T18:04:51.913Z,2.04
2017-05-18T18:07:20.902Z,6.98
2017-05-18T18:09:49.889Z,1.68
2017-05-18T18:12:19.336Z,2.32
2017-05-18T18:14:48.295Z,3.00
2017-05-18T18:17:17.372Z,2.76
2017-05-18T18:19:46.644Z,2.30
2017-05-18T18:22:16.332Z,3.90
2017-05-18T18:24:45.275Z,2.58
2017-05-18T18:27:14.600Z,2.20
2017-05-18T18:29:43.552Z,4.92
2017-05-18T18:32:12.629Z,4.82
2017-05-18T18:34:42.776Z,2.00
2017-05-18T18:37:12.689Z,1.82
2017-05-18T18:39:41.661Z,4.62
2017-05-18T18:42:12.592Z,3.44
2017-05-18T18:44:42.308Z,2.30
2017-05-18T18:47:12.267Z,3.40
2017-05-18T18:49:41.246Z,3.22
2017-05-18T18:52:10.234Z,7.68
2017-05-18T18:54:39.598Z,3.72
2017-05-18T18:57:09.368Z,2.82
2017-05-18T18:59:38.338Z,5.00
2017-05-18T19:02:07.707Z,2.52
2017-05-18T19:04:37.421Z,5.32
2017-05-18T19:07:06.388Z,2.60
2017-05-18T19:09:35.841Z,3.28
2017-05-18T19:12:04.804Z,4.42
2017-05-18T19:14:33.767Z,1.92
2017-05-18T19:17:03.255Z,8.10
2017-05-18T19:19:32.190Z,4.70
2017-05-18T19:22:01.931Z,2.94
2017-05-18T19:24:31.273Z,2.12
2017-05-18T19:27:00.251Z,4.64
2017-05-18T19:29:29.237Z,6.52
2017-05-18T19:31:58.711Z,5.72
2017-05-18T19:34:27.658Z,2.90
2017-05-18T19:36:56.605Z,3.82
2017-05-18T19:39:25.952Z,7.48
2017-05-18T19:41:54.940Z,3.78
2017-05-18T19:44:23.896Z,3.60
2017-05-18T19:46:53.273Z,5.36
2017-05-18T19:49:22.230Z,5.76
2017-05-18T19:51:51.198Z,3.60
2017-05-18T19:54:20.536Z,5.84
2017-05-18T19:56:50.222Z,3.00
2017-05-18T19:59:19.192Z,3.06
2017-05-18T20:01:48.523Z,3.00
2017-05-18T20:04:18.239Z,5.88
2017-05-18T20:06:47.987Z,5.18
2017-05-18T20:09:17.491Z,8.78
2017-05-18T20:11:46.508Z,3.18
2017-05-18T20:14:15.496Z,7.60
2017-05-18T20:16:44.976Z,3.72
2017-05-18T20:19:13.961Z,3.58
2017-05-18T20:21:42.968Z,4.00
2017-05-18T20:24:12.425Z,2.76
2017-05-18T20:26:41.850Z,4.30
2017-05-18T20:29:10.999Z,3.44
2017-05-18T20:31:40.517Z,4.26
2017-05-18T20:34:09.555Z,4.14
2017-05-18T20:36:38.651Z,3.20
2017-05-18T20:39:08.116Z,5.96
2017-05-18T20:41:37.821Z,6.50
2017-05-18T20:44:07.554Z,5.28
2017-05-18T20:46:36.998Z,3.40
2017-05-18T20:49:05.950Z,4.20
2017-05-18T20:51:34.945Z,4.00
2017-05-18T20:54:04.341Z,4.00
2017-05-18T20:56:33.305Z,3.72
2017-05-18T20:59:02.221Z,5.68
2017-05-18T21:01:31.536Z,4.94
2017-05-18T21:04:00.452Z,5.36
2017-05-18T21:06:30.075Z,4.58
2017-05-18T21:08:59.392Z,4.90
2017-05-18T21:11:29.058Z,3.80
2017-05-18T21:13:58.080Z,4.64
2017-05-18T21:16:27.512Z,7.64
2017-05-18T21:18:57.316Z,5.38
2017-05-18T21:21:27.339Z,5.10
2017-05-18T21:23:57.061Z,6.02
2017-05-18T21:26:26.024Z,5.52
2017-05-18T21:28:56.118Z,3.92
2017-05-18T21:31:25.108Z,3.76
2017-05-18T21:33:54.039Z,4.98
2017-05-18T21:36:24.072Z,8.42
2017-05-18T21:38:53.010Z,5.74
2017-05-18T21:41:21.976Z,6.74
2017-05-18T21:43:51.353Z,6.26
2017-05-18T21:46:20.323Z,6.46
2017-05-18T21:48:49.244Z,8.00
2017-05-18T21:51:18.586Z,6.00
2017-05-18T21:53:47.502Z,6.36
2017-05-18T21:56:16.419Z,5.74
2017-05-18T21:58:46.469Z,5.00
2017-05-18T22:01:15.379Z,5.84
2017-05-18T22:03:44.882Z,6.68
2017-05-18T22:06:14.169Z,7.04
2017-05-18T22:08:43.144Z,5.68
2017-05-18T22:11:12.111Z,9.70
2017-05-18T22:13:41.549Z,5.96
2017-05-18T22:16:10.578Z,6.44
2017-05-18T22:18:39.519Z,8.64
2017-05-18T22:21:09.506Z,5.94
2017-05-18T22:23:38.459Z,7.12
2017-05-18T22:26:07.406Z,7.28
2017-05-18T22:28:36.869Z,7.82
2017-05-18T22:31:05.926Z,8.72
2017-05-18T22:33:34.899Z,9.02
2017-05-18T22:36:04.254Z,9.50
2017-05-18T22:38:33.218Z,6.02
2017-05-18T22:41:02.182Z,8.04
2017-05-18T22:43:31.438Z,9.02
2017-05-18T22:46:01.148Z,7.58
2017-05-18T22:48:30.842Z,7.54
2017-05-18T22:51:00.327Z,6.88
2017-05-18T22:53:29.272Z,7.76
2017-05-18T22:55:58.214Z,6.74
2017-05-18T22:58:28.254Z,7.54
2017-05-18T23:00:57.196Z,7.54
2017-05-18T23:03:26.141Z,7.72
2017-05-18T23:05:56.242Z,9.54
2017-05-18T23:08:25.174Z,7.72
2017-05-18T23:10:54.149Z,7.52
2017-05-18T23:13:24.238Z,9.12
2017-05-18T23:15:53.773Z,7.46
2017-05-18T23:18:22.739Z,7.64
2017-05-18T23:20:52.051Z,8.48
2017-05-18T23:23:21.746Z,7.76
2017-05-18T23:25:51.055Z,6.80
2017-05-18T23:28:20.459Z,11.24
2017-05-18T23:30:49.589Z,7.72
2017-05-18T23:33:21.515Z,8.92
2017-05-18T23:35:50.465Z,10.14
2017-05-18T23:38:19.475Z,7.14
2017-05-18T23:40:48.817Z,7.92
2017-05-18T23:43:18.641Z,7.82
2017-05-18T23:45:47.586Z,8.08
2017-05-18T23:48:16.904Z,8.46
2017-05-18T23:50:46.586Z,7.98
2017-05-18T23:53:15.526Z,10.24
2017-05-18T23:55:44.928Z,8.86
2017-05-18T23:58:13.875Z,11.22
